Terminal Aerodrome Forecast
Issued by NWS Rapid City, SD

Home | Current Version | Previous Version | Graphics & Text | Print | Product List | Glossary On
Versions: 1 2 3 4 5 6 7 8 9 10 11 12 13 14 15 16 17 18 19
923
FTUS43 KUNR 150520
TAFRAP
TAF
KRAP 150520Z 1506/1606 32011KT P6SM SCT100
     FM151600 15012KT P6SM SKC
     FM160200 14010KT P6SM BKN120=

USA.gov is the U.S. government's official web portal to all federal, state and local government web resources and services.